createdAt,value
2019-01-23T00:00:33.184Z,22.53
2019-01-23T00:03:02.239Z,23.53
2019-01-23T00:05:31.279Z,24.43
2019-01-23T00:08:00.343Z,21.70
2019-01-23T00:10:29.329Z,21.73
2019-01-23T00:12:58.290Z,22.57
2019-01-23T00:15:27.346Z,22.10
2019-01-23T00:17:56.335Z,23.00
2019-01-23T00:20:25.382Z,23.57
2019-01-23T00:22:54.357Z,22.50
2019-01-23T00:25:23.390Z,24.00
2019-01-23T00:27:52.386Z,23.63
2019-01-23T00:30:21.362Z,24.20
2019-01-23T06:47:36.214Z,18.80
2019-01-23T06:50:08.282Z,18.73
2019-01-23T06:52:37.259Z,20.37
2019-01-23T06:55:06.585Z,20.17
2019-01-23T06:57:35.575Z,20.70
2019-01-23T07:00:07.619Z,19.80
2019-01-23T07:02:36.659Z,19.93
2019-01-23T07:05:07.987Z,20.97
2019-01-23T07:07:36.945Z,20.07
2019-01-23T07:10:11.970Z,20.73
2019-01-23T07:12:40.958Z,20.17
2019-01-23T07:15:11.695Z,20.67
2019-01-23T07:17:40.670Z,20.60
2019-01-23T07:20:15.818Z,19.47
2019-01-23T07:22:45.465Z,20.63
2019-01-23T07:25:14.504Z,20.73
2019-01-23T07:27:43.470Z,21.83
2019-01-23T07:30:32.589Z,21.40
2019-01-23T07:33:01.548Z,21.57
2019-01-23T07:35:30.650Z,21.83
2019-01-23T07:37:59.674Z,21.17
2019-01-23T07:40:28.730Z,23.37
2019-01-23T07:42:57.691Z,23.20
2019-01-23T07:45:28.107Z,22.40
2019-01-23T07:47:57.144Z,21.47
2019-01-23T07:50:26.390Z,22.27
2019-01-23T07:52:55.834Z,23.10
2019-01-23T07:55:24.832Z,22.27
2019-01-23T07:57:54.570Z,22.57
2019-01-23T08:00:31.317Z,23.10
2019-01-23T08:02:57.110Z,23.40
2019-01-23T08:05:26.556Z,23.87
2019-01-23T08:07:55.519Z,22.63
2019-01-23T08:10:24.878Z,24.20
2019-01-23T08:12:53.932Z,23.03
2019-01-23T08:15:28.603Z,23.47
2019-01-23T08:17:57.639Z,22.77
2019-01-23T08:20:29.242Z,22.23
2019-01-23T08:22:59.039Z,22.63
2019-01-23T08:25:28.106Z,22.87
2019-01-23T08:27:58.002Z,22.63
2019-01-23T08:30:27.249Z,21.67
2019-01-23T08:32:56.237Z,21.17
2019-01-23T08:35:26.161Z,20.47
2019-01-23T08:37:55.256Z,22.00
2019-01-23T08:40:24.311Z,21.47
2019-01-23T08:42:54.148Z,21.10
2019-01-23T08:45:24.283Z,20.83
2019-01-23T08:47:53.258Z,21.17
2019-01-23T08:50:33.117Z,20.00
2019-01-23T08:53:02.147Z,19.50
2019-01-23T08:55:31.126Z,19.53
2019-01-23T08:58:00.182Z,20.73
2019-01-23T09:00:29.222Z,19.07
2019-01-23T09:02:58.275Z,20.10
2019-01-23T09:05:27.531Z,19.63
2019-01-23T09:07:56.556Z,20.37
2019-01-23T09:10:28.044Z,21.30
2019-01-23T09:12:57.154Z,21.43
2019-01-23T09:15:26.146Z,21.07
2019-01-23T09:17:56.676Z,20.90
2019-01-23T09:20:25.742Z,22.50
2019-01-23T09:22:54.702Z,20.77
2019-01-23T09:25:25.934Z,20.33
2019-01-23T09:27:56.131Z,21.70
2019-01-23T09:30:30.850Z,21.17
2019-01-23T09:33:05.483Z,22.07
2019-01-23T09:35:40.362Z,20.50
2019-01-23T09:38:27.574Z,20.13
2019-01-23T09:41:00.862Z,21.63
2019-01-23T09:43:44.974Z,22.10
2019-01-23T09:46:19.703Z,20.10
2019-01-23T09:48:54.410Z,20.23
2019-01-23T09:51:44.603Z,19.67
2019-01-23T09:54:15.166Z,19.43
2019-01-23T09:56:45.619Z,21.93
2019-01-23T09:59:14.575Z,21.63
2019-01-23T10:01:43.631Z,21.00
2019-01-23T10:04:12.605Z,20.93
2019-01-23T10:06:41.581Z,23.23
2019-01-23T10:09:11.318Z,21.53
2019-01-23T10:11:40.360Z,21.30
2019-01-23T10:14:09.479Z,21.00
2019-01-23T10:16:38.541Z,27.63
2019-01-23T10:19:07.498Z,22.80
2019-01-23T10:21:38.542Z,22.67
2019-01-23T10:24:07.494Z,19.63
2019-01-23T10:26:36.486Z,20.37
2019-01-23T10:29:05.599Z,20.30
2019-01-23T10:31:34.574Z,20.23
2019-01-23T10:34:03.540Z,20.97
2019-01-23T10:36:32.679Z,20.17
2019-01-23T10:39:01.773Z,21.10
2019-01-23T10:41:31.090Z,21.17
2019-01-23T10:44:00.426Z,20.77
2019-01-23T10:46:29.680Z,21.63
2019-01-23T10:48:58.823Z,21.33
2019-01-23T10:51:27.937Z,21.77
2019-01-23T10:53:58.749Z,21.90
2019-01-23T10:56:27.803Z,22.97
2019-01-23T10:58:56.848Z,22.07
2019-01-23T11:01:26.095Z,22.00
2019-01-23T11:03:55.253Z,22.97
2019-01-23T11:06:24.326Z,21.03
2019-01-23T11:08:53.354Z,21.57
2019-01-23T11:11:22.398Z,21.30
2019-01-23T11:13:51.524Z,20.93
2019-01-23T11:16:22.322Z,22.87
2019-01-23T11:18:52.914Z,21.53
2019-01-23T11:21:21.954Z,22.20
2019-01-23T11:23:50.926Z,22.50
2019-01-23T11:26:20.046Z,21.70
2019-01-23T11:28:49.690Z,22.13
2019-01-23T11:31:20.507Z,22.60
2019-01-23T11:33:49.352Z,23.07
2019-01-23T11:36:18.424Z,22.00
2019-01-23T11:38:47.381Z,24.13
2019-01-23T11:41:16.714Z,22.07
2019-01-23T11:43:45.749Z,22.47
2019-01-23T11:46:14.816Z,22.67
2019-01-23T11:48:43.778Z,22.77
2019-01-23T11:51:12.834Z,25.07
2019-01-23T11:53:41.874Z,23.13
2019-01-23T11:56:10.933Z,22.07
2019-01-23T11:58:39.899Z,22.93
2019-01-23T12:01:09.654Z,22.07
2019-01-23T12:03:40.159Z,22.37
2019-01-23T12:06:09.165Z,23.23
2019-01-23T12:08:38.220Z,23.83
2019-01-23T12:11:07.206Z,24.17
2019-01-23T12:13:36.249Z,22.60
2019-01-23T12:16:05.313Z,22.03
2019-01-23T12:18:34.283Z,22.43
2019-01-23T12:21:03.398Z,21.53
2019-01-23T12:23:32.442Z,20.70
2019-01-23T12:26:02.347Z,21.50
2019-01-23T12:28:32.346Z,22.13
2019-01-23T12:31:01.338Z,22.63
2019-01-23T12:33:30.386Z,23.30
2019-01-23T12:35:59.376Z,21.73
2019-01-23T12:38:28.374Z,21.73
2019-01-23T12:40:59.049Z,21.77
2019-01-23T12:43:28.111Z,22.97
2019-01-23T12:45:57.145Z,23.83
2019-01-23T12:48:27.094Z,24.17
2019-01-23T12:50:56.219Z,21.83
2019-01-23T12:53:25.209Z,22.67
2019-01-23T12:55:54.161Z,23.57
2019-01-23T12:58:23.230Z,21.90
2019-01-23T13:00:52.582Z,24.80
2019-01-23T13:03:21.639Z,23.00
2019-01-23T13:05:50.743Z,22.90
2019-01-23T13:08:19.727Z,24.03
2019-01-23T13:10:48.807Z,22.27
2019-01-23T13:13:19.205Z,21.27
2019-01-23T13:15:48.333Z,22.30
2019-01-23T13:18:17.298Z,22.83
2019-01-23T13:20:46.346Z,21.70
2019-01-23T13:23:19.678Z,21.57
2019-01-23T13:25:46.083Z,21.10
2019-01-23T13:28:16.102Z,22.30
2019-01-23T13:30:45.178Z,21.73
2019-01-23T13:33:14.141Z,20.40
2019-01-23T13:35:43.164Z,21.33
2019-01-23T13:38:13.390Z,23.23
2019-01-23T13:40:44.201Z,21.90
2019-01-23T13:43:13.758Z,21.93
2019-01-23T13:45:42.727Z,22.17
2019-01-23T13:48:11.845Z,22.03
2019-01-23T13:50:40.878Z,21.23
2019-01-23T13:53:11.098Z,23.07
2019-01-23T13:55:41.462Z,21.73
2019-01-23T13:58:10.427Z,21.70
2019-01-23T14:00:43.415Z,21.77
2019-01-23T14:03:12.818Z,21.07
2019-01-23T14:05:41.921Z,22.43
2019-01-23T14:08:11.043Z,20.63
2019-01-23T14:14:05.218Z,19.67
2019-01-23T14:16:34.442Z,21.63
2019-01-23T14:19:03.408Z,21.83
2019-01-23T14:21:33.834Z,20.97
2019-01-23T14:24:02.815Z,22.43
2019-01-23T14:26:31.883Z,20.57
2019-01-23T14:29:00.830Z,22.67
2019-01-23T14:31:29.823Z,20.73
2019-01-23T14:33:58.791Z,22.57
2019-01-23T14:36:27.829Z,22.40
2019-01-23T14:38:56.804Z,21.43
2019-01-23T14:41:25.796Z,23.50
2019-01-23T14:43:54.770Z,22.60
2019-01-23T14:46:23.870Z,21.10
2019-01-23T14:48:52.854Z,22.40
2019-01-23T14:51:21.842Z,20.97
2019-01-23T14:53:50.828Z,20.83
2019-01-23T14:56:19.797Z,22.50
2019-01-23T14:58:48.803Z,22.50
2019-01-23T15:01:17.782Z,21.70
2019-01-23T15:03:46.764Z,21.83
2019-01-23T15:06:15.735Z,23.07
2019-01-23T15:08:44.718Z,21.20
2019-01-23T15:11:13.706Z,20.83
2019-01-23T15:13:42.758Z,21.03
2019-01-23T15:16:11.711Z,19.97
2019-01-23T15:18:40.704Z,21.20
2019-01-23T15:21:09.678Z,22.57
2019-01-23T15:23:38.650Z,20.70
2019-01-23T15:26:07.775Z,22.07
2019-01-23T15:28:36.751Z,20.53
2019-01-23T15:31:05.722Z,22.00
2019-01-23T15:33:35.031Z,21.27
2019-01-23T15:36:04.331Z,20.87
2019-01-23T15:38:33.298Z,20.20
2019-01-23T15:41:02.309Z,20.50
2019-01-23T15:43:31.284Z,20.20
2019-01-23T15:46:00.323Z,19.90
2019-01-23T15:48:29.316Z,20.50
2019-01-23T15:50:58.297Z,18.93
2019-01-23T15:53:27.317Z,19.60
2019-01-23T15:55:58.644Z,20.80
2019-01-23T15:58:27.649Z,20.20
2019-01-23T16:00:56.606Z,20.30
2019-01-23T16:03:25.590Z,19.37
2019-01-23T16:05:54.579Z,20.83
2019-01-23T16:08:24.331Z,21.23
2019-01-23T16:10:54.527Z,19.00
2019-01-23T16:13:23.558Z,21.43
2019-01-23T16:15:52.627Z,21.77
2019-01-23T16:18:21.598Z,20.50
2019-01-23T16:20:50.605Z,20.03
2019-01-23T16:23:19.870Z,20.23
2019-01-23T16:25:48.839Z,19.07
2019-01-23T16:28:19.439Z,18.53
2019-01-23T16:30:50.130Z,20.13
2019-01-23T16:33:21.810Z,19.27
2019-01-23T16:35:54.307Z,19.40
2019-01-23T16:38:23.598Z,20.60
2019-01-23T16:40:52.894Z,19.97
2019-01-23T16:43:22.042Z,19.83
2019-01-23T16:45:51.015Z,18.50
2019-01-23T16:48:20.080Z,21.40
2019-01-23T16:50:51.257Z,18.23
2019-01-23T16:53:21.610Z,18.77
2019-01-23T16:55:50.576Z,19.67
2019-01-23T16:58:19.688Z,19.50
2019-01-23T17:00:48.743Z,20.07
2019-01-23T17:03:19.275Z,20.27
2019-01-23T17:05:48.327Z,20.50
2019-01-23T17:08:17.366Z,19.30
2019-01-23T17:10:49.475Z,20.27
2019-01-23T17:13:19.343Z,19.07
2019-01-23T17:16:49.051Z,18.93
2019-01-23T17:19:18.103Z,18.93
2019-01-23T17:21:47.087Z,20.30
2019-01-23T17:24:17.328Z,17.93
2019-01-23T17:26:47.494Z,20.17
2019-01-23T17:29:17.050Z,20.13
2019-01-23T17:31:46.039Z,20.80
2019-01-23T17:34:15.098Z,19.37
2019-01-23T17:36:44.136Z,19.73
2019-01-23T17:39:13.190Z,19.47
2019-01-23T17:41:42.338Z,18.77
2019-01-23T17:44:13.012Z,17.83
2019-01-23T17:46:42.102Z,20.03
2019-01-23T17:49:11.080Z,18.43
2019-01-23T17:51:40.079Z,18.80
2019-01-23T17:54:09.072Z,18.53
2019-01-23T17:56:38.120Z,18.67
2019-01-23T17:59:07.484Z,18.63
2019-01-23T18:01:36.519Z,18.57
2019-01-23T18:04:07.334Z,19.83
2019-01-23T18:06:36.374Z,20.20
2019-01-23T18:09:07.891Z,20.97
2019-01-23T18:11:36.859Z,19.83
2019-01-23T18:14:06.002Z,20.70
2019-01-23T18:16:36.034Z,18.37
2019-01-23T18:19:05.156Z,19.57
2019-01-23T18:21:34.141Z,19.77
2019-01-23T18:24:03.350Z,20.03
2019-01-23T18:26:37.578Z,19.50
2019-01-23T18:29:02.970Z,21.60
2019-01-23T18:31:32.995Z,19.70
2019-01-23T18:34:21.683Z,20.23
2019-01-23T18:36:53.718Z,20.20
2019-01-23T18:39:42.500Z,19.20
2019-01-23T18:42:26.494Z,19.50
2019-01-23T18:45:01.227Z,20.33
2019-01-23T18:47:42.201Z,19.57
2019-01-23T18:50:29.355Z,19.40
2019-01-23T18:53:00.609Z,19.83
2019-01-23T18:55:29.672Z,19.80
2019-01-23T18:57:58.794Z,19.53
2019-01-23T19:00:27.854Z,19.90
2019-01-23T19:02:56.907Z,19.80
2019-01-23T19:05:26.144Z,19.50
2019-01-23T19:07:55.198Z,20.90
2019-01-23T19:10:24.183Z,20.27
2019-01-23T19:12:53.275Z,20.37
2019-01-23T19:15:23.075Z,19.40
2019-01-23T19:17:54.599Z,20.00
2019-01-23T19:20:23.736Z,20.43
2019-01-23T19:23:26.627Z,20.10
2019-01-23T19:25:55.688Z,20.60
2019-01-23T19:31:24.096Z,20.87
2019-01-23T19:31:41.297Z,21.40
2019-01-23T19:33:53.047Z,20.13
2019-01-23T19:36:22.030Z,21.30
2019-01-23T19:38:51.094Z,20.07
2019-01-23T19:41:22.478Z,19.80
2019-01-23T19:43:51.455Z,20.23
2019-01-23T19:46:20.430Z,19.97
2019-01-23T19:48:49.395Z,19.97
2019-01-23T19:51:18.395Z,20.77
2019-01-23T19:53:47.355Z,19.83
2019-01-23T19:56:16.414Z,19.63
2019-01-23T19:58:45.398Z,21.37
2019-01-23T20:01:14.450Z,19.97
2019-01-23T20:03:43.410Z,19.63
2019-01-23T20:06:12.490Z,19.60
2019-01-23T20:08:41.461Z,20.80
2019-01-23T20:11:10.440Z,21.07
2019-01-23T20:13:39.470Z,20.47
2019-01-23T20:16:08.531Z,20.43
2019-01-23T20:18:37.804Z,21.53
2019-01-23T20:21:06.868Z,21.07
2019-01-23T20:23:35.840Z,20.17
2019-01-23T20:26:05.301Z,20.10
2019-01-23T20:28:34.269Z,20.47
2019-01-23T20:31:03.393Z,19.90
2019-01-23T20:33:32.378Z,21.03
2019-01-23T20:36:01.399Z,21.43
2019-01-23T20:38:30.444Z,20.23
2019-01-23T20:40:59.530Z,21.03
2019-01-23T20:43:29.948Z,19.27
2019-01-23T20:45:59.131Z,19.77
2019-01-23T20:48:28.125Z,19.50
2019-01-23T20:50:57.118Z,21.33
2019-01-23T20:53:26.160Z,20.53
2019-01-23T20:55:55.253Z,21.57
2019-01-23T20:58:24.284Z,19.53
2019-01-23T21:00:53.257Z,21.43
2019-01-23T21:03:22.318Z,19.87
2019-01-23T21:05:52.205Z,21.80
2019-01-23T21:08:21.318Z,21.87
2019-01-23T21:10:50.322Z,20.37
2019-01-23T21:13:19.367Z,20.90
2019-01-23T21:15:48.362Z,19.83
2019-01-23T21:18:17.348Z,21.33
2019-01-23T21:20:46.334Z,21.13
2019-01-23T21:23:15.405Z,19.53
2019-01-23T21:25:44.375Z,21.03
2019-01-23T21:28:13.354Z,21.47
2019-01-23T21:30:42.464Z,20.87
2019-01-23T21:33:11.460Z,19.73
2019-01-23T21:35:40.432Z,20.97
2019-01-23T21:38:09.434Z,20.67
2019-01-23T21:40:38.467Z,21.30
2019-01-23T21:43:07.458Z,20.87
2019-01-23T21:45:36.435Z,19.83
2019-01-23T21:48:05.559Z,20.33
2019-01-23T21:50:34.536Z,21.23
2019-01-23T21:53:03.703Z,20.27
2019-01-23T21:55:32.845Z,21.47
2019-01-23T21:58:01.855Z,21.40
2019-01-23T22:00:33.828Z,19.57
2019-01-23T22:03:04.649Z,21.30
2019-01-23T22:05:33.620Z,21.73
2019-01-23T22:08:02.597Z,22.87
2019-01-23T22:10:31.569Z,20.87
2019-01-23T22:13:00.554Z,21.27
2019-01-23T22:15:31.763Z,20.13
2019-01-23T22:18:00.772Z,21.13
2019-01-23T22:20:29.916Z,22.33
2019-01-23T22:22:58.957Z,21.10
2019-01-23T22:25:28.028Z,20.90
2019-01-23T22:27:56.992Z,20.50
2019-01-23T22:30:29.054Z,20.07
2019-01-23T22:32:58.183Z,22.47
2019-01-23T22:35:27.216Z,21.73
2019-01-23T22:37:56.260Z,21.17
2019-01-23T22:40:25.411Z,22.80
2019-01-23T22:42:54.391Z,22.60
2019-01-23T22:45:23.435Z,22.40
2019-01-23T22:47:52.410Z,24.43
2019-01-23T22:50:23.430Z,21.87
2019-01-23T22:52:52.859Z,22.93
2019-01-23T22:55:21.878Z,22.50
2019-01-23T22:57:51.058Z,22.17
2019-01-23T23:00:39.538Z,23.60
2019-01-23T23:03:10.763Z,22.80
2019-01-23T23:05:39.748Z,21.90
2019-01-23T23:08:08.857Z,23.00
2019-01-23T23:10:37.952Z,25.70
2019-01-23T23:13:07.010Z,21.33
2019-01-23T23:15:35.990Z,23.10
2019-01-23T23:18:05.798Z,24.13
2019-01-23T23:20:34.861Z,24.90
2019-01-23T23:23:03.994Z,23.17
2019-01-23T23:25:32.950Z,23.37
2019-01-23T23:28:02.006Z,23.33
2019-01-23T23:30:31.200Z,23.83
2019-01-23T23:33:00.328Z,23.87
2019-01-23T23:35:29.299Z,24.77
2019-01-23T23:37:58.283Z,23.03
2019-01-23T23:40:29.052Z,23.03
2019-01-23T23:42:58.094Z,22.83
2019-01-23T23:45:27.127Z,22.90
2019-01-23T23:47:56.164Z,21.67
2019-01-23T23:50:25.133Z,21.30
2019-01-23T23:52:54.118Z,22.80
2019-01-23T23:55:23.152Z,21.57
2019-01-23T23:57:52.138Z,22.60
